Аэропорт
Хомутово (UHSS)

 UHSS / UUS
ЗЦ Хабаровск
Хабаровск (UHHH)
Хабаровск (UHHH)
 46.88870, 142.71800  / 59 ft

 UHSS 251130Z 35003MPS 9999 -SHRA SCT033CB 12/11 Q1011 R01/70D NOSIG RMK MT OBSC QFE757/1010
 TAF UHSS 250731Z 2509/2615 36004MPS 9999 BKN020CB TEMPO 2509/2615 -SHRA BECMG 2602/2605 20003MPS
uhss_aip_1605
показать схемы
Название сценария Тип сценария Flight Simulator 9 Flight Simulator X Prepar3D v2 Prepar3D v3 Prepar3D v4 xPlane
FSX-UHSS-2015 бесплатный
P3D-UHSS-2015 бесплатный
UHSS-FS9 бесплатный
UHSS_XPL бесплатный


2019 © VATRUS division (Privacy Policy)